Time;durP1;ratioP1;P1;durP2;ratioP2;P2;SDS_P1;SDS_P2;PMS_P1;PMS_P2;Temp;Humidity;BMP_temperature;BMP_pressure;BME280_temperature;BME280_humidity;BME280_pressure;Samples;Min_cycle;Max_cycle;Signal;HPM_P1;HPM_P2
2022/11/10 00:00:08;;;;;;;;;;;12.30;99.90;;;;;;5087070;28;19993;-83
2022/11/10 00:02:33;;;;;;;;;;;12.30;99.90;;;;;;5089857;28;19913;-82
2022/11/10 00:04:59;;;;;;;;;;;12.20;99.90;;;;;;5090374;28;20349;-82
2022/11/10 00:07:25;;;;;;;;;;;12.30;99.90;;;;;;5089600;28;19920;-85
2022/11/10 00:09:53;;;;;;;;;;;12.30;99.90;;;;;;5090354;28;19915;-84
2022/11/10 00:12:20;;;;;;;;;;;12.30;99.90;;;;;;5131176;22;19912;-83
2022/11/10 00:17:29;;;;;;;;;;;12.30;99.90;;;;;;5079944;28;19948;-83
2022/11/10 00:19:55;;;;;;;;;;;12.30;99.90;;;;;;5078540;28;19909;-82
2022/11/10 00:22:20;;;;;;;;;;;12.20;99.90;;;;;;5077146;28;19960;-82
2022/11/10 00:24:46;;;;;;;;;;;12.20;99.90;;;;;;5077732;28;20371;-83
2022/11/10 00:27:12;;;;;;;;;;;12.20;99.90;;;;;;5077825;28;19919;-82
2022/11/10 00:29:38;;;;;;;;;;;12.20;99.90;;;;;;5078952;28;19978;-82
2022/11/10 00:32:03;;;;;;;;;;;12.20;99.90;;;;;;5079876;28;19908;-81
2022/11/10 00:34:29;;;;;;;;;;;12.20;99.90;;;;;;5078968;28;20357;-82
2022/11/10 00:36:54;;;;;;;;;;;12.10;99.90;;;;;;5078022;28;19909;-83
2022/11/10 00:39:20;;;;;;;;;;;12.10;99.90;;;;;;5077257;28;20372;-81
2022/11/10 00:41:45;;;;;;;;;;;12.10;99.90;;;;;;5078667;28;19913;-82
2022/11/10 00:44:11;;;;;;;;;;;12.10;99.90;;;;;;5077982;28;19908;-82
2022/11/10 00:46:36;;;;;;;;;;;12.10;99.90;;;;;;5078671;28;20561;-82
2022/11/10 00:49:01;;;;;;;;;;;12.10;99.90;;;;;;5077327;28;20076;-81
2022/11/10 00:51:28;;;;;;;;;;;12.10;99.90;;;;;;5078605;28;19923;-80
2022/11/10 00:53:53;;;;;;;;;;;12.00;99.90;;;;;;5075815;28;19943;-82
2022/11/10 00:56:21;;;;;;;;;;;12.00;99.90;;;;;;5075772;28;19916;-81
2022/11/10 00:58:47;;;;;;;;;;;12.00;99.90;;;;;;5077265;28;19961;-80
2022/11/10 01:01:14;;;;;;;;;;;11.90;99.90;;;;;;5076196;28;19970;-82
2022/11/10 01:03:39;;;;;;;;;;;11.90;99.90;;;;;;5076601;28;20283;-82
2022/11/10 01:06:05;;;;;;;;;;;11.90;99.90;;;;;;5076480;28;19915;-83
2022/11/10 01:08:31;;;;;;;;;;;11.80;99.90;;;;;;5076281;28;20331;-82
2022/11/10 01:11:00;;;;;;;;;;;11.90;99.90;;;;;;5076773;28;19915;-82
2022/11/10 01:13:25;;;;;;;;;;;11.80;99.90;;;;;;5075007;28;19916;-82
2022/11/10 01:15:51;;;;;;;;;;;11.80;99.90;;;;;;5076152;28;19952;-83
2022/11/10 01:18:16;;;;;;;;;;;11.70;99.90;;;;;;5077187;28;19941;-81
2022/11/10 01:20:42;;;;;;;;;;;11.70;99.90;;;;;;5078280;28;19908;-82
2022/11/10 01:23:09;;;;;;;;;;;11.80;99.90;;;;;;5092913;28;19912;-80
2022/11/10 01:25:34;;;;;;;;;;;11.80;99.90;;;;;;5076106;28;19936;-81
2022/11/10 01:27:59;;;;;;;;;;;11.80;99.90;;;;;;5077236;28;19935;-82
2022/11/10 01:30:25;;;;;;;;;;;11.70;99.90;;;;;;5077702;28;19931;-82
2022/11/10 01:32:50;;;;;;;;;;;11.80;99.90;;;;;;5077306;28;19931;-82
2022/11/10 01:35:16;;;;;;;;;;;11.70;99.90;;;;;;5077545;28;19915;-81
2022/11/10 01:37:41;;;;;;;;;;;11.70;99.90;;;;;;5077137;28;19908;-82
2022/11/10 01:40:07;;;;;;;;;;;11.80;99.90;;;;;;5077368;28;19908;-81
2022/11/10 01:42:52;;;;;;;;;;;11.70;99.90;;;;;;5076733;28;19916;-82
2022/11/10 01:45:21;;;;;;;;;;;11.70;99.90;;;;;;5077711;28;20343;-82
2022/11/10 01:47:47;;;;;;;;;;;11.70;99.90;;;;;;5079351;28;19912;-81
2022/11/10 01:50:13;;;;;;;;;;;11.70;99.90;;;;;;5078450;28;19908;-82
2022/11/10 01:52:38;;;;;;;;;;;11.70;99.90;;;;;;5078277;28;20374;-81
2022/11/10 01:55:04;;;;;;;;;;;11.60;99.90;;;;;;5076700;28;19951;-82
2022/11/10 01:57:30;;;;;;;;;;;11.60;99.90;;;;;;5077618;28;19909;-81
2022/11/10 01:59:55;;;;;;;;;;;11.70;99.90;;;;;;5078849;28;19999;-82
2022/11/10 02:02:27;;;;;;;;;;;11.70;99.90;;;;;;5076579;28;19908;-82
2022/11/10 02:04:53;;;;;;;;;;;11.70;99.90;;;;;;5076753;28;19908;-82
2022/11/10 02:07:19;;;;;;;;;;;11.70;99.90;;;;;;5077653;28;20375;-82
2022/11/10 02:09:44;;;;;;;;;;;11.60;99.90;;;;;;5076618;28;19908;-83
2022/11/10 02:12:10;;;;;;;;;;;11.60;99.90;;;;;;5078591;28;19942;-82
2022/11/10 02:14:36;;;;;;;;;;;11.60;99.90;;;;;;5078971;28;19923;-82
2022/11/10 02:17:02;;;;;;;;;;;11.60;99.90;;;;;;5077684;28;19912;-83
2022/11/10 02:19:27;;;;;;;;;;;11.50;99.90;;;;;;5078369;28;19912;-82
2022/11/10 02:21:53;;;;;;;;;;;11.50;99.90;;;;;;5078341;28;20345;-83
2022/11/10 02:24:18;;;;;;;;;;;11.50;99.90;;;;;;5075642;28;19999;-82
2022/11/10 02:26:49;;;;;;;;;;;11.50;99.90;;;;;;5093063;28;19908;-81
2022/11/10 02:29:15;;;;;;;;;;;11.50;99.90;;;;;;5077714;28;19912;-82
2022/11/10 02:31:40;;;;;;;;;;;11.40;99.90;;;;;;5078463;28;19908;-82
2022/11/10 02:34:06;;;;;;;;;;;11.40;99.90;;;;;;5075619;28;19909;-82
2022/11/10 02:36:31;;;;;;;;;;;11.40;99.90;;;;;;5075792;28;19908;-81
2022/11/10 02:38:57;;;;;;;;;;;11.30;99.90;;;;;;5074255;28;19916;-83
2022/11/10 02:41:22;;;;;;;;;;;11.40;99.90;;;;;;5075868;28;19934;-82
2022/11/10 02:43:48;;;;;;;;;;;11.40;99.90;;;;;;5074848;28;19919;-82
2022/11/10 02:46:13;;;;;;;;;;;11.40;99.90;;;;;;5074689;28;19909;-82
2022/11/10 02:48:39;;;;;;;;;;;11.40;99.90;;;;;;5074415;28;19919;-81
2022/11/10 02:51:04;;;;;;;;;;;11.40;99.90;;;;;;5074522;28;19908;-82
2022/11/10 02:53:30;;;;;;;;;;;11.30;99.90;;;;;;5075625;28;19915;-83
2022/11/10 02:55:55;;;;;;;;;;;11.30;99.90;;;;;;5075412;28;19908;-83
2022/11/10 02:58:21;;;;;;;;;;;11.30;99.90;;;;;;5074823;28;19928;-82
2022/11/10 03:00:46;;;;;;;;;;;11.30;99.90;;;;;;5075945;28;19909;-80
2022/11/10 03:03:12;;;;;;;;;;;11.20;99.90;;;;;;5074495;28;19931;-81
2022/11/10 03:05:37;;;;;;;;;;;11.20;99.90;;;;;;5074934;28;19994;-81
2022/11/10 03:08:03;;;;;;;;;;;11.20;99.90;;;;;;5075185;28;19912;-80
2022/11/10 03:10:29;;;;;;;;;;;11.20;99.90;;;;;;5076612;28;19955;-82
2022/11/10 03:12:55;;;;;;;;;;;11.20;99.90;;;;;;5075855;28;20356;-81
2022/11/10 03:15:21;;;;;;;;;;;11.20;99.90;;;;;;5073155;28;19916;-81
2022/11/10 03:17:47;;;;;;;;;;;11.20;99.90;;;;;;5073153;28;19908;-81
2022/11/10 03:20:13;;;;;;;;;;;11.20;99.90;;;;;;5075078;28;19909;-82
2022/11/10 03:22:38;;;;;;;;;;;11.20;99.90;;;;;;5075225;28;20368;-82
2022/11/10 03:25:04;;;;;;;;;;;11.30;99.90;;;;;;5075283;28;19915;-81
2022/11/10 03:27:29;;;;;;;;;;;11.40;99.90;;;;;;5075415;28;19916;-83
2022/11/10 03:29:55;;;;;;;;;;;11.30;99.90;;;;;;5076628;28;19995;-82
2022/11/10 03:32:20;;;;;;;;;;;11.40;99.90;;;;;;5075108;28;19935;-82
2022/11/10 03:34:46;;;;;;;;;;;11.40;99.90;;;;;;5075807;28;20007;-82
2022/11/10 03:37:11;;;;;;;;;;;11.40;99.90;;;;;;5078221;28;19923;-82
2022/11/10 03:39:37;;;;;;;;;;;11.40;99.90;;;;;;5078042;28;19908;-83
2022/11/10 03:42:04;;;;;;;;;;;11.50;99.90;;;;;;5078128;28;19908;-82
2022/11/10 03:44:29;;;;;;;;;;;11.50;99.90;;;;;;5078060;28;19915;-81
2022/11/10 03:46:55;;;;;;;;;;;11.50;99.90;;;;;;5076302;28;20003;-83
2022/11/10 03:49:20;;;;;;;;;;;11.50;99.90;;;;;;5077650;28;19922;-82
2022/11/10 03:51:46;;;;;;;;;;;11.60;99.90;;;;;;5076799;28;20330;-81
2022/11/10 03:54:11;;;;;;;;;;;11.60;99.90;;;;;;5078717;28;19999;-82
2022/11/10 03:56:37;;;;;;;;;;;11.50;99.90;;;;;;5077388;28;19954;-80
2022/11/10 03:59:02;;;;;;;;;;;11.40;99.90;;;;;;5077793;28;19908;-80
2022/11/10 04:01:27;;;;;;;;;;;11.50;99.90;;;;;;5077992;28;19912;-81
2022/11/10 04:03:53;;;;;;;;;;;11.50;99.90;;;;;;5078304;28;19908;-80
2022/11/10 04:09:04;;;;;;;;;;;11.50;99.90;;;;;;5078186;28;20398;-81
2022/11/10 04:16:58;;;;;;;;;;;11.30;99.90;;;;;;5077925;28;19959;-81
2022/11/10 04:19:23;;;;;;;;;;;11.40;99.90;;;;;;5076502;28;20291;-82
2022/11/10 04:21:49;;;;;;;;;;;11.40;99.90;;;;;;5075988;28;20268;-81
2022/11/10 04:24:15;;;;;;;;;;;11.40;99.90;;;;;;5075418;28;19919;-81
2022/11/10 04:26:41;;;;;;;;;;;11.40;99.90;;;;;;5076980;28;20404;-81
2022/11/10 04:29:08;;;;;;;;;;;11.30;99.90;;;;;;5075649;28;20268;-83
2022/11/10 04:31:36;;;;;;;;;;;11.20;99.90;;;;;;5077808;28;19975;-81
2022/11/10 04:34:02;;;;;;;;;;;11.30;99.90;;;;;;5075892;28;19915;-81
2022/11/10 04:36:28;;;;;;;;;;;11.30;99.90;;;;;;5075233;28;19913;-81
2022/11/10 04:38:54;;;;;;;;;;;11.30;99.90;;;;;;5077970;28;19915;-83
2022/11/10 04:41:20;;;;;;;;;;;11.30;99.90;;;;;;5077188;28;19991;-81
2022/11/10 04:43:46;;;;;;;;;;;11.30;99.90;;;;;;5076956;28;19915;-81
2022/11/10 04:46:31;;;;;;;;;;;11.30;99.90;;;;;;5076133;28;19916;-82
2022/11/10 04:48:57;;;;;;;;;;;11.30;99.90;;;;;;5075367;28;19912;-82
2022/11/10 04:51:24;;;;;;;;;;;11.30;99.90;;;;;;5075282;28;19915;-82
2022/11/10 04:53:50;;;;;;;;;;;11.20;99.90;;;;;;5076120;28;19916;-81
2022/11/10 04:56:17;;;;;;;;;;;11.20;99.90;;;;;;5075296;28;20268;-82
2022/11/10 04:58:42;;;;;;;;;;;11.20;99.90;;;;;;5076612;28;19908;-82
2022/11/10 05:01:19;;;;;;;;;;;11.10;99.90;;;;;;5077141;28;20287;-81
2022/11/10 05:03:45;;;;;;;;;;;11.10;99.90;;;;;;5075932;28;19908;-80
2022/11/10 05:06:10;;;;;;;;;;;11.10;99.90;;;;;;5077231;28;19908;-81
2022/11/10 05:08:36;;;;;;;;;;;11.10;99.90;;;;;;5077494;28;19951;-80
2022/11/10 05:11:02;;;;;;;;;;;11.10;99.90;;;;;;5076585;28;19974;-82
2022/11/10 05:13:28;;;;;;;;;;;11.00;99.90;;;;;;5077736;28;20379;-81
2022/11/10 05:15:53;;;;;;;;;;;11.00;99.90;;;;;;5076101;28;19912;-81
2022/11/10 05:18:19;;;;;;;;;;;11.10;99.90;;;;;;5076147;28;19908;-80
2022/11/10 05:20:44;;;;;;;;;;;11.10;99.90;;;;;;5076937;28;19916;-80
2022/11/10 05:25:53;;;;;;;;;;;11.10;99.90;;;;;;5076646;28;19915;-82
2022/11/10 05:28:19;;;;;;;;;;;11.10;99.90;;;;;;5075959;28;19913;-81
2022/11/10 05:30:44;;;;;;;;;;;11.10;99.90;;;;;;5076879;28;19909;-80
2022/11/10 05:33:10;;;;;;;;;;;11.00;99.90;;;;;;5076397;28;19908;-81
2022/11/10 05:35:35;;;;;;;;;;;11.00;99.90;;;;;;5075741;28;19909;-81
2022/11/10 05:38:01;;;;;;;;;;;11.00;99.90;;;;;;5074237;28;19916;-80
2022/11/10 05:40:27;;;;;;;;;;;10.90;99.90;;;;;;5076921;28;19962;-81
2022/11/10 05:42:52;;;;;;;;;;;10.90;99.90;;;;;;5074590;28;19961;-81
2022/11/10 05:45:20;;;;;;;;;;;11.00;99.90;;;;;;5075660;28;19915;-81
2022/11/10 05:47:45;;;;;;;;;;;11.00;99.90;;;;;;5074434;28;19912;-82
2022/11/10 05:50:10;;;;;;;;;;;11.00;99.90;;;;;;5075150;28;19923;-81
2022/11/10 05:52:43;;;;;;;;;;;10.90;99.90;;;;;;5075301;28;19909;-81
2022/11/10 05:55:09;;;;;;;;;;;10.90;99.90;;;;;;5074545;28;19968;-82
2022/11/10 05:57:34;;;;;;;;;;;10.90;99.90;;;;;;5075039;28;19944;-80
2022/11/10 06:00:00;;;;;;;;;;;10.90;99.90;;;;;;5074661;28;19909;-80
2022/11/10 06:02:26;;;;;;;;;;;10.90;99.90;;;;;;5073999;28;19990;-80
2022/11/10 06:04:51;;;;;;;;;;;10.90;99.90;;;;;;5075764;28;19908;-81
2022/11/10 06:07:17;;;;;;;;;;;10.90;99.90;;;;;;5075674;28;19913;-82
2022/11/10 06:09:42;;;;;;;;;;;10.90;99.90;;;;;;5075479;28;19909;-80
2022/11/10 06:12:08;;;;;;;;;;;10.90;99.90;;;;;;5073967;28;19919;-80
2022/11/10 06:14:33;;;;;;;;;;;10.90;99.90;;;;;;5088130;22;19931;-81
2022/11/10 06:16:58;;;;;;;;;;;10.90;99.90;;;;;;5072935;28;19909;-81
2022/11/10 06:19:24;;;;;;;;;;;10.90;99.90;;;;;;5071540;28;20390;-79
2022/11/10 06:21:49;;;;;;;;;;;10.90;99.90;;;;;;5071772;28;19908;-81
2022/11/10 06:24:15;;;;;;;;;;;10.90;99.90;;;;;;5071211;28;20015;-79
2022/11/10 06:26:40;;;;;;;;;;;10.90;99.90;;;;;;5072641;28;19908;-81
2022/11/10 06:29:06;;;;;;;;;;;10.90;99.90;;;;;;5071922;28;19909;-80
2022/11/10 06:31:31;;;;;;;;;;;10.90;99.90;;;;;;5072676;28;19909;-79
2022/11/10 06:33:57;;;;;;;;;;;11.00;99.90;;;;;;5072453;28;19917;-80
2022/11/10 06:36:22;;;;;;;;;;;11.00;99.90;;;;;;5072445;28;19912;-79
2022/11/10 06:38:47;;;;;;;;;;;11.10;99.90;;;;;;5072661;28;19913;-81
2022/11/10 06:41:13;;;;;;;;;;;11.00;99.90;;;;;;5072738;28;19995;-81
2022/11/10 06:43:38;;;;;;;;;;;11.00;99.90;;;;;;5071160;28;20417;-80
2022/11/10 06:46:04;;;;;;;;;;;11.00;99.90;;;;;;5072161;28;20345;-80
2022/11/10 06:48:29;;;;;;;;;;;11.10;99.90;;;;;;5072465;28;19970;-79
2022/11/10 06:50:58;;;;;;;;;;;11.10;99.90;;;;;;5072327;28;19969;-80
2022/11/10 06:53:23;;;;;;;;;;;11.10;99.90;;;;;;5072252;28;19915;-80
2022/11/10 06:55:49;;;;;;;;;;;11.10;99.90;;;;;;5070767;28;19908;-80
2022/11/10 06:58:15;;;;;;;;;;;11.10;99.90;;;;;;5072244;28;20033;-80
2022/11/10 07:00:40;;;;;;;;;;;11.10;99.90;;;;;;5070992;28;19916;-79
2022/11/10 07:03:08;;;;;;;;;;;11.10;99.90;;;;;;5072380;28;19909;-79
2022/11/10 07:05:35;;;;;;;;;;;11.10;99.90;;;;;;5071925;28;19997;-79
2022/11/10 07:08:01;;;;;;;;;;;11.10;99.90;;;;;;5070981;28;19912;-80
2022/11/10 07:10:27;;;;;;;;;;;11.00;99.90;;;;;;5074561;28;19995;-80
2022/11/10 07:12:56;;;;;;;;;;;10.90;99.90;;;;;;5076014;28;20379;-79
2022/11/10 07:15:22;;;;;;;;;;;10.90;99.90;;;;;;5074672;28;20360;-80
2022/11/10 07:17:47;;;;;;;;;;;10.80;99.90;;;;;;5076587;28;20004;-78
2022/11/10 07:20:12;;;;;;;;;;;10.80;99.90;;;;;;5076583;28;20368;-78
2022/11/10 07:22:38;;;;;;;;;;;10.80;99.90;;;;;;5076471;28;20276;-78
2022/11/10 07:25:04;;;;;;;;;;;10.80;99.90;;;;;;5076339;28;19908;-79
2022/11/10 07:27:29;;;;;;;;;;;10.70;99.90;;;;;;5075822;28;19991;-79
2022/11/10 07:29:54;;;;;;;;;;;10.70;99.90;;;;;;5075905;28;19908;-79
2022/11/10 07:32:20;;;;;;;;;;;10.80;99.90;;;;;;5075829;28;19908;-79
2022/11/10 07:34:45;;;;;;;;;;;10.80;99.90;;;;;;5076086;28;20376;-79
2022/11/10 07:37:11;;;;;;;;;;;10.80;99.90;;;;;;5075460;28;19919;-80
2022/11/10 07:39:36;;;;;;;;;;;10.80;99.90;;;;;;5075693;28;19908;-80
2022/11/10 07:42:02;;;;;;;;;;;10.80;99.90;;;;;;5075819;28;20371;-78
2022/11/10 07:44:27;;;;;;;;;;;10.80;99.90;;;;;;5075982;28;20012;-79
2022/11/10 07:46:53;;;;;;;;;;;10.80;99.90;;;;;;5075678;28;19912;-78
2022/11/10 07:49:18;;;;;;;;;;;10.90;99.90;;;;;;5075849;28;19909;-79
2022/11/10 07:51:44;;;;;;;;;;;10.90;99.90;;;;;;5074806;28;20367;-78
2022/11/10 07:54:09;;;;;;;;;;;10.90;99.90;;;;;;5074341;28;19931;-79
2022/11/10 07:56:34;;;;;;;;;;;11.00;99.90;;;;;;5075648;28;19909;-78
2022/11/10 07:59:00;;;;;;;;;;;11.00;99.90;;;;;;5075999;28;20379;-78
2022/11/10 08:01:26;;;;;;;;;;;11.00;99.90;;;;;;5075802;28;19909;-79
2022/11/10 08:03:51;;;;;;;;;;;11.00;99.90;;;;;;5075440;28;19970;-79
2022/11/10 08:06:16;;;;;;;;;;;11.10;99.90;;;;;;5075592;28;19908;-79
2022/11/10 08:08:42;;;;;;;;;;;11.20;99.90;;;;;;5074521;28;19932;-79
2022/11/10 08:11:07;;;;;;;;;;;11.20;99.90;;;;;;5075798;28;19912;-79
2022/11/10 08:13:33;;;;;;;;;;;11.30;99.90;;;;;;5074428;28;20541;-79
2022/11/10 08:15:58;;;;;;;;;;;11.40;99.90;;;;;;5075663;28;19973;-79
2022/11/10 08:18:24;;;;;;;;;;;11.40;99.90;;;;;;5075508;28;20417;-79
2022/11/10 08:20:51;;;;;;;;;;;11.50;99.90;;;;;;5073930;28;19908;-78
2022/11/10 08:23:16;;;;;;;;;;;11.60;99.90;;;;;;5075062;28;20319;-79
2022/11/10 08:25:42;;;;;;;;;;;11.70;99.90;;;;;;5075147;28;19915;-80
2022/11/10 08:28:09;;;;;;;;;;;11.80;99.90;;;;;;5075437;28;19919;-78
2022/11/10 08:30:35;;;;;;;;;;;11.90;99.90;;;;;;5075328;28;19909;-79
2022/11/10 08:33:02;;;;;;;;;;;12.00;99.90;;;;;;5075130;28;20375;-79
2022/11/10 08:35:28;;;;;;;;;;;12.10;99.90;;;;;;5075067;28;19959;-78
2022/11/10 08:37:54;;;;;;;;;;;12.10;99.90;;;;;;5075255;28;19913;-78
2022/11/10 08:40:20;;;;;;;;;;;12.20;99.90;;;;;;5075206;28;20272;-78
2022/11/10 08:42:46;;;;;;;;;;;12.40;99.90;;;;;;5075302;28;19909;-78
2022/11/10 08:45:12;;;;;;;;;;;12.40;99.90;;;;;;5075208;28;19915;-79
2022/11/10 08:47:37;;;;;;;;;;;12.50;99.90;;;;;;5073033;28;19913;-80
2022/11/10 08:50:03;;;;;;;;;;;12.60;99.90;;;;;;5074544;28;19954;-80
2022/11/10 08:52:28;;;;;;;;;;;12.70;99.90;;;;;;5074325;28;20330;-80
2022/11/10 08:54:54;;;;;;;;;;;12.70;99.90;;;;;;5074023;28;19962;-80
2022/11/10 08:57:19;;;;;;;;;;;12.80;99.90;;;;;;5072529;28;19912;-80
2022/11/10 08:59:45;;;;;;;;;;;12.80;99.90;;;;;;5073035;28;19916;-80
2022/11/10 09:02:10;;;;;;;;;;;13.00;99.90;;;;;;5074126;28;19908;-81
2022/11/10 09:04:36;;;;;;;;;;;13.10;99.90;;;;;;5074086;28;19916;-81
2022/11/10 09:07:02;;;;;;;;;;;13.20;99.90;;;;;;5073942;28;19954;-80
2022/11/10 09:09:27;;;;;;;;;;;13.30;99.90;;;;;;5074128;28;19916;-80
2022/11/10 09:11:52;;;;;;;;;;;13.40;99.90;;;;;;5075018;28;20307;-79
2022/11/10 09:14:18;;;;;;;;;;;13.50;99.90;;;;;;5073309;28;19965;-80
2022/11/10 09:16:43;;;;;;;;;;;13.50;99.90;;;;;;5073875;28;20448;-79
2022/11/10 09:19:09;;;;;;;;;;;13.60;99.90;;;;;;5074551;28;19915;-80
2022/11/10 09:21:34;;;;;;;;;;;13.70;99.90;;;;;;5073969;28;20458;-79
2022/11/10 09:24:00;;;;;;;;;;;13.80;99.90;;;;;;5073210;28;19908;-79
2022/11/10 09:26:25;;;;;;;;;;;13.80;99.90;;;;;;5073497;28;19909;-80
2022/11/10 09:28:51;;;;;;;;;;;13.90;99.90;;;;;;5074556;28;19908;-78
2022/11/10 09:31:17;;;;;;;;;;;13.80;99.90;;;;;;5074433;28;19950;-80
2022/11/10 09:33:42;;;;;;;;;;;13.80;99.90;;;;;;5074351;28;20361;-79
2022/11/10 09:36:08;;;;;;;;;;;13.90;99.90;;;;;;5072646;28;19916;-81
2022/11/10 09:38:34;;;;;;;;;;;14.10;99.90;;;;;;5073709;28;19965;-79
2022/11/10 09:41:04;;;;;;;;;;;14.20;99.90;;;;;;5074738;28;19916;-79
2022/11/10 09:43:38;;;;;;;;;;;14.30;99.90;;;;;;5073222;28;19909;-79
2022/11/10 09:46:17;;;;;;;;;;;14.30;99.90;;;;;;5073983;28;19916;-78
2022/11/10 09:48:50;;;;;;;;;;;14.40;99.90;;;;;;5073898;28;20295;-80
2022/11/10 09:51:19;;;;;;;;;;;14.40;99.90;;;;;;5072097;28;20372;-80
2022/11/10 09:53:50;;;;;;;;;;;14.50;99.90;;;;;;5073248;28;20008;-80
2022/11/10 09:56:20;;;;;;;;;;;14.50;99.90;;;;;;5072769;28;19991;-80
2022/11/10 09:58:46;;;;;;;;;;;14.70;99.90;;;;;;5071869;28;19912;-80
2022/11/10 10:01:28;;;;;;;;;;;14.90;99.90;;;;;;5072985;28;20295;-80
2022/11/10 10:04:02;;;;;;;;;;;14.90;99.90;;;;;;5073262;28;19915;-80
2022/11/10 10:06:28;;;;;;;;;;;15.00;99.90;;;;;;5072746;28;19947;-79
2022/11/10 10:09:13;;;;;;;;;;;15.00;99.90;;;;;;5072985;28;19962;-80
2022/11/10 10:11:39;;;;;;;;;;;15.00;99.90;;;;;;5055764;28;19912;-81
2022/11/10 10:14:20;;;;;;;;;;;15.20;99.90;;;;;;5052839;28;19923;-80
2022/11/10 10:16:52;;;;;;;;;;;15.40;99.90;;;;;;5051544;28;19918;-80
2022/11/10 10:19:19;;;;;;;;;;;15.40;99.90;;;;;;5052144;28;19913;-80
2022/11/10 10:22:04;;;;;;;;;;;15.50;99.90;;;;;;5052322;28;19994;-80
2022/11/10 10:24:31;;;;;;;;;;;15.70;99.90;;;;;;5067453;28;19909;-81
2022/11/10 10:27:02;;;;;;;;;;;15.80;99.90;;;;;;5058400;28;19919;-82
2022/11/10 10:29:44;;;;;;;;;;;15.90;99.90;;;;;;5069490;28;19908;-81
2022/11/10 10:32:11;;;;;;;;;;;16.00;99.90;;;;;;5072156;28;19916;-81
2022/11/10 10:34:38;;;;;;;;;;;16.10;99.90;;;;;;5072058;28;20476;-81
2022/11/10 10:37:03;;;;;;;;;;;16.10;99.90;;;;;;5069769;28;19916;-81
2022/11/10 10:39:33;;;;;;;;;;;16.10;99.90;;;;;;5070227;28;19908;-81
2022/11/10 10:41:58;;;;;;;;;;;16.10;99.90;;;;;;5071604;28;19959;-81
2022/11/10 10:44:24;;;;;;;;;;;16.20;99.90;;;;;;5071679;28;19956;-80
2022/11/10 10:46:53;;;;;;;;;;;16.30;99.90;;;;;;5071579;28;20674;-81
2022/11/10 10:49:20;;;;;;;;;;;16.40;99.90;;;;;;5071989;28;19955;-81
2022/11/10 10:51:46;;;;;;;;;;;16.20;99.90;;;;;;5071419;28;19912;-81
2022/11/10 10:54:25;;;;;;;;;;;16.40;99.90;;;;;;5072256;28;19909;-81
2022/11/10 10:56:59;;;;;;;;;;;16.50;99.90;;;;;;5071519;28;19912;-81
2022/11/10 10:59:25;;;;;;;;;;;17.00;99.90;;;;;;5070565;28;20352;-83
2022/11/10 11:01:52;;;;;;;;;;;18.80;99.90;;;;;;5070568;28;19948;-83
2022/11/10 11:04:25;;;;;;;;;;;20.10;99.90;;;;;;5070826;28;19913;-83
2022/11/10 11:06:55;;;;;;;;;;;20.60;99.90;;;;;;5071720;28;19919;-83
2022/11/10 11:09:24;;;;;;;;;;;20.10;99.90;;;;;;5059304;28;20373;-83
2022/11/10 11:14:30;;;;;;;;;;;19.10;99.90;;;;;;5641753;22;19940;-80
2022/11/10 11:16:57;;;;;;;;;;;19.50;99.90;;;;;;5026993;28;19921;-80
2022/11/10 11:19:28;;;;;;;;;;;20.10;99.90;;;;;;5034395;28;19909;-81
2022/11/10 11:21:54;;;;;;;;;;;21.60;99.90;;;;;;5035726;28;20336;-81
2022/11/10 11:24:34;;;;;;;;;;;23.70;99.90;;;;;;5034925;28;19999;-79
2022/11/10 11:27:09;;;;;;;;;;;25.40;97.20;;;;;;5064945;22;19925;-80
2022/11/10 11:29:53;;;;;;;;;;;26.50;91.50;;;;;;5049221;28;19920;-80
2022/11/10 11:32:18;;;;;;;;;;;28.00;85.60;;;;;;5044345;28;19948;-81
2022/11/10 11:34:49;;;;;;;;;;;29.30;76.30;;;;;;5048147;28;19920;-80
2022/11/10 11:37:14;;;;;;;;;;;29.50;67.30;;;;;;5051806;28;20020;-80
2022/11/10 11:39:59;;;;;;;;;;;29.50;64.00;;;;;;5051537;28;19949;-79
2022/11/10 11:42:27;;;;;;;;;;;30.30;62.50;;;;;;5050438;28;19996;-79
2022/11/10 11:44:59;;;;;;;;;;;31.40;57.90;;;;;;5049856;28;19909;-80
2022/11/10 11:47:35;;;;;;;;;;;31.10;55.40;;;;;;5052178;28;19939;-79
2022/11/10 11:50:18;;;;;;;;;;;30.90;54.20;;;;;;5034791;28;19909;-80
2022/11/10 11:52:47;;;;;;;;;;;30.10;54.60;;;;;;5048378;28;19916;-81
2022/11/10 11:55:17;;;;;;;;;;;30.00;55.80;;;;;;5032842;28;19910;-79
2022/11/10 11:58:01;;;;;;;;;;;29.60;55.50;;;;;;5034329;28;19962;-79
2022/11/10 12:00:27;;;;;;;;;;;28.10;55.10;;;;;;5054618;28;19921;-80
2022/11/10 12:03:02;;;;;;;;;;;27.40;56.30;;;;;;5055380;28;20614;-79
2022/11/10 12:05:46;;;;;;;;;;;26.50;57.70;;;;;;5053900;28;20012;-79
2022/11/10 12:08:25;;;;;;;;;;;26.70;59.50;;;;;;5043190;28;19913;-81
2022/11/10 12:10:56;;;;;;;;;;;27.40;59.00;;;;;;5060977;28;19972;-80
2022/11/10 12:13:22;;;;;;;;;;;27.50;59.30;;;;;;5059792;28;19909;-80
2022/11/10 12:15:51;;;;;;;;;;;27.20;59.00;;;;;;5059283;28;20263;-80
2022/11/10 12:18:28;;;;;;;;;;;26.70;59.40;;;;;;5059101;28;19958;-79
2022/11/10 12:20:59;;;;;;;;;;;26.50;60.00;;;;;;5059684;28;19916;-80
2022/11/10 12:23:34;;;;;;;;;;;25.90;59.90;;;;;;5058869;28;19913;-79
2022/11/10 12:26:14;;;;;;;;;;;25.10;61.80;;;;;;5060381;28;19913;-79
2022/11/10 12:28:46;;;;;;;;;;;23.70;64.00;;;;;;5056981;28;19916;-78
2022/11/10 12:31:19;;;;;;;;;;;22.90;68.30;;;;;;5058589;28;19952;-78
2022/11/10 12:33:47;;;;;;;;;;;22.50;68.90;;;;;;5057110;28;19916;-79
2022/11/10 12:36:14;;;;;;;;;;;23.70;71.90;;;;;;5058362;28;19916;-80
2022/11/10 12:38:42;;;;;;;;;;;25.10;67.20;;;;;;5056572;28;19909;-81
2022/11/10 12:41:11;;;;;;;;;;;26.80;65.20;;;;;;5058460;28;20358;-79
2022/11/10 12:43:59;;;;;;;;;;;27.70;61.30;;;;;;5056517;28;19916;-78
2022/11/10 12:46:25;;;;;;;;;;;27.30;57.90;;;;;;5057220;28;19920;-79
2022/11/10 12:49:16;;;;;;;;;;;27.30;57.70;;;;;;5057639;28;19942;-78
2022/11/10 12:51:48;;;;;;;;;;;28.20;58.50;;;;;;5055402;28;19909;-78
2022/11/10 12:54:15;;;;;;;;;;;29.40;57.10;;;;;;5057192;28;19918;-78
2022/11/10 12:57:00;;;;;;;;;;;29.40;54.00;;;;;;5055697;28;19992;-78
2022/11/10 12:59:27;;;;;;;;;;;29.20;54.00;;;;;;5058459;28;19955;-79
2022/11/10 13:02:01;;;;;;;;;;;28.30;53.30;;;;;;5057691;28;19908;-78
2022/11/10 13:04:27;;;;;;;;;;;27.30;54.70;;;;;;5054615;28;19912;-80
2022/11/10 13:06:54;;;;;;;;;;;26.40;56.50;;;;;;5056963;28;20404;-80
2022/11/10 13:09:21;;;;;;;;;;;26.00;58.20;;;;;;5055935;28;20381;-80
2022/11/10 13:12:02;;;;;;;;;;;25.60;57.90;;;;;;5056079;28;19963;-79
2022/11/10 13:14:28;;;;;;;;;;;25.50;58.40;;;;;;5054972;28;19909;-78
2022/11/10 13:16:55;;;;;;;;;;;24.80;59.90;;;;;;5056101;28;20000;-80
2022/11/10 13:19:23;;;;;;;;;;;23.80;59.00;;;;;;5055146;28;19936;-80
2022/11/10 13:21:49;;;;;;;;;;;22.90;61.00;;;;;;5035328;28;19909;-83
2022/11/10 13:24:22;;;;;;;;;;;22.10;64.50;;;;;;5036250;28;19963;-82
2022/11/10 13:26:52;;;;;;;;;;;21.30;67.40;;;;;;5035869;28;19917;-83
2022/11/10 13:29:19;;;;;;;;;;;20.70;69.70;;;;;;5037227;28;19916;-83
2022/11/10 13:31:49;;;;;;;;;;;20.30;74.60;;;;;;5037271;28;19996;-83
2022/11/10 13:34:17;;;;;;;;;;;19.90;76.70;;;;;;5036774;28;19909;-83
2022/11/10 13:36:43;;;;;;;;;;;19.50;79.90;;;;;;5035615;28;20007;-83
2022/11/10 13:39:15;;;;;;;;;;;19.40;87.30;;;;;;5036304;28;19995;-82
2022/11/10 13:41:44;;;;;;;;;;;19.20;89.00;;;;;;5036660;28;19916;-82
2022/11/10 13:44:21;;;;;;;;;;;19.00;91.30;;;;;;5036562;28;19996;-83
2022/11/10 13:46:56;;;;;;;;;;;19.00;91.80;;;;;;5034840;28;20481;-83
2022/11/10 13:49:21;;;;;;;;;;;18.90;92.20;;;;;;5037101;28;19913;-83
2022/11/10 13:52:07;;;;;;;;;;;18.80;93.00;;;;;;5035854;28;19925;-83
2022/11/10 13:54:51;;;;;;;;;;;18.80;94.10;;;;;;5040742;28;19909;-83
2022/11/10 13:57:19;;;;;;;;;;;18.70;96.10;;;;;;5066497;28;19908;-82
2022/11/10 13:59:51;;;;;;;;;;;18.70;96.40;;;;;;5075318;28;19920;-82
2022/11/10 14:02:32;;;;;;;;;;;18.60;96.80;;;;;;5065659;28;19909;-82
2022/11/10 14:05:02;;;;;;;;;;;18.60;97.80;;;;;;5044060;28;19917;-82
2022/11/10 14:07:28;;;;;;;;;;;18.50;97.90;;;;;;5035170;28;19963;-82
2022/11/10 14:09:54;;;;;;;;;;;18.50;98.30;;;;;;5035242;28;20448;-82
2022/11/10 14:12:24;;;;;;;;;;;18.60;97.70;;;;;;5051498;28;20290;-82
2022/11/10 14:15:01;;;;;;;;;;;18.50;98.20;;;;;;5053795;28;19948;-82
2022/11/10 14:17:29;;;;;;;;;;;18.50;99.40;;;;;;5053932;28;19908;-83
2022/11/10 14:19:55;;;;;;;;;;;18.60;99.60;;;;;;5055444;28;19913;-82
2022/11/10 14:22:34;;;;;;;;;;;18.60;99.90;;;;;;5054560;28;20370;-82
2022/11/10 14:25:21;;;;;;;;;;;18.50;99.80;;;;;;5054359;28;20330;-82
2022/11/10 14:27:47;;;;;;;;;;;18.40;99.90;;;;;;5054115;28;19916;-82
2022/11/10 14:30:20;;;;;;;;;;;18.40;99.90;;;;;;5053826;28;19916;-83
2022/11/10 14:32:59;;;;;;;;;;;18.40;99.90;;;;;;5055191;28;19909;-83
2022/11/10 14:35:27;;;;;;;;;;;18.40;99.90;;;;;;5054196;28;20385;-82